Time;durP1;ratioP1;P1;durP2;ratioP2;P2;SDS_P1;SDS_P2;PMS_P1;PMS_P2;Temp;Humidity;BMP_temperature;BMP_pressure;BME280_temperature;BME280_humidity;BME280_pressure;Samples;Min_cycle;Max_cycle;Signal;HPM_P1;HPM_P2
2022/01/05 00:00:26;;;;;;;480.77;458.83;;;3.00;99.90;;;;;;4409642;32;20215;-62
2022/01/05 00:02:53;;;;;;;482.50;460.37;;;2.90;99.90;;;;;;4417037;32;20445;-62
2022/01/05 00:05:20;;;;;;;472.73;450.87;;;2.80;99.90;;;;;;4414997;32;20199;-62
2022/01/05 00:07:46;;;;;;;510.83;486.77;;;2.80;99.90;;;;;;4412348;32;20472;-62
2022/01/05 00:10:15;;;;;;;503.13;478.93;;;2.80;99.90;;;;;;4416867;32;20187;-63
2022/01/05 00:12:44;;;;;;;511.87;487.20;;;2.90;99.90;;;;;;4410760;32;20171;-63
2022/01/05 00:15:13;;;;;;;495.67;472.80;;;3.00;99.90;;;;;;4415411;32;20160;-64
2022/01/05 00:17:40;;;;;;;487.07;464.23;;;2.90;99.90;;;;;;4416693;32;20155;-67
2022/01/05 00:20:08;;;;;;;481.20;459.13;;;2.90;99.90;;;;;;4414695;32;20193;-65
2022/01/05 00:22:35;;;;;;;491.03;468.63;;;2.80;99.90;;;;;;4409700;32;20372;-63
2022/01/05 00:25:02;;;;;;;480.33;457.63;;;2.80;99.90;;;;;;4415957;32;20151;-63
2022/01/05 00:27:35;;;;;;;487.27;464.93;;;2.70;99.90;;;;;;4414610;32;20213;-63
2022/01/05 00:30:02;;;;;;;474.30;452.07;;;2.60;99.90;;;;;;4410204;32;20597;-64
2022/01/05 00:32:29;;;;;;;462.87;441.77;;;2.60;99.90;;;;;;4419974;32;20211;-62
2022/01/05 00:34:56;;;;;;;470.60;449.33;;;2.60;99.90;;;;;;4412307;32;20249;-62
2022/01/05 00:37:22;;;;;;;481.17;458.97;;;2.60;99.90;;;;;;4416516;32;20214;-62
2022/01/05 00:39:50;;;;;;;485.00;462.63;;;2.60;99.90;;;;;;4421494;32;20210;-62
2022/01/05 00:42:22;;;;;;;467.70;445.60;;;2.50;99.90;;;;;;4412492;32;20159;-62
2022/01/05 00:44:52;;;;;;;471.87;450.00;;;2.50;99.90;;;;;;4416514;32;20160;-62
2022/01/05 00:47:19;;;;;;;476.93;454.73;;;2.50;99.90;;;;;;4414506;32;20154;-61
2022/01/05 00:49:48;;;;;;;478.80;456.93;;;2.70;99.90;;;;;;4417036;32;20208;-62
2022/01/05 00:52:17;;;;;;;483.30;460.83;;;2.90;99.90;;;;;;4410415;32;20610;-62
2022/01/05 00:54:45;;;;;;;465.60;444.00;;;3.00;99.90;;;;;;4417062;32;20160;-64
2022/01/05 00:57:12;;;;;;;476.47;454.63;;;3.00;99.90;;;;;;4413270;32;20171;-62
2022/01/05 00:59:42;;;;;;;476.87;454.87;;;3.00;99.90;;;;;;4412170;32;20207;-62
2022/01/05 01:02:13;;;;;;;451.97;431.20;;;3.00;99.90;;;;;;4410012;32;20618;-64
2022/01/05 01:04:46;;;;;;;449.77;429.93;;;2.90;99.90;;;;;;4410151;32;20151;-62
2022/01/05 01:07:13;;;;;;;444.97;424.30;;;2.80;99.90;;;;;;4414164;32;20155;-64
2022/01/05 01:09:43;;;;;;;452.93;432.17;;;2.60;99.90;;;;;;4406156;32;20193;-62
2022/01/05 01:12:11;;;;;;;451.87;430.90;;;2.50;99.90;;;;;;4418415;32;20177;-63
2022/01/05 01:14:38;;;;;;;450.13;429.77;;;2.40;99.90;;;;;;4406771;32;20566;-62
2022/01/05 01:17:05;;;;;;;459.40;437.77;;;2.40;99.90;;;;;;4412264;32;20204;-63
2022/01/05 01:19:33;;;;;;;462.67;441.43;;;2.30;99.90;;;;;;4420510;32;20207;-63
2022/01/05 01:22:03;;;;;;;448.23;427.97;;;2.30;99.90;;;;;;4410681;32;20156;-64
2022/01/05 01:24:33;;;;;;;449.97;429.07;;;2.30;99.90;;;;;;4405889;32;22127;-64
2022/01/05 01:26:59;;;;;;;451.27;431.03;;;2.20;99.90;;;;;;4411802;32;20583;-62
2022/01/05 01:29:27;;;;;;;434.77;414.57;;;2.20;99.90;;;;;;4412493;32;20165;-62
2022/01/05 01:32:00;;;;;;;440.20;420.13;;;2.10;99.90;;;;;;4417334;32;20177;-63
2022/01/05 01:34:34;;;;;;;452.53;431.60;;;2.10;99.90;;;;;;4407683;32;20161;-64
2022/01/05 01:37:01;;;;;;;453.13;431.40;;;2.10;99.90;;;;;;4406965;32;20664;-63
2022/01/05 01:39:28;;;;;;;433.13;413.03;;;2.20;99.90;;;;;;4421969;32;20175;-64
2022/01/05 01:41:55;;;;;;;437.80;417.87;;;2.30;99.90;;;;;;4416753;32;20158;-64
2022/01/05 01:44:22;;;;;;;435.43;414.53;;;2.40;99.90;;;;;;4409214;32;20203;-63
2022/01/05 01:46:49;;;;;;;421.27;402.20;;;2.30;99.90;;;;;;4414426;32;20148;-63
2022/01/05 01:49:16;;;;;;;421.10;401.90;;;2.30;99.90;;;;;;4412737;32;20203;-63
2022/01/05 01:51:44;;;;;;;431.47;411.37;;;2.20;99.90;;;;;;4411729;32;20243;-63
2022/01/05 01:54:11;;;;;;;410.53;392.13;;;2.20;99.90;;;;;;4419391;32;20207;-63
2022/01/05 01:56:47;;;;;;;407.00;388.33;;;2.20;99.90;;;;;;4405886;32;20649;-63
2022/01/05 01:59:17;;;;;;;409.87;391.53;;;2.20;99.90;;;;;;4414200;32;20185;-63
2022/01/05 02:01:44;;;;;;;415.13;396.60;;;2.10;99.90;;;;;;4410443;32;20171;-63
2022/01/05 02:04:11;;;;;;;417.03;398.17;;;2.10;99.90;;;;;;4418058;32;20170;-63
2022/01/05 02:06:37;;;;;;;401.40;383.60;;;2.20;99.90;;;;;;4408994;32;20175;-63
2022/01/05 02:09:06;;;;;;;412.93;394.50;;;2.20;99.90;;;;;;4414516;32;20184;-63
2022/01/05 02:11:38;;;;;;;408.37;390.07;;;2.30;99.90;;;;;;4414385;32;20183;-63
2022/01/05 02:14:08;;;;;;;394.83;376.47;;;2.40;99.90;;;;;;4414606;32;20171;-62
2022/01/05 02:16:40;;;;;;;402.60;384.53;;;2.50;99.90;;;;;;4408937;32;20151;-63
2022/01/05 02:19:10;;;;;;;411.57;392.87;;;2.60;99.90;;;;;;4413784;32;20176;-63
2022/01/05 02:21:47;;;;;;;419.73;401.40;;;2.60;99.90;;;;;;4416651;32;20157;-62
2022/01/05 02:24:16;;;;;;;418.33;399.27;;;2.50;99.90;;;;;;4409434;32;20215;-63
2022/01/05 02:26:43;;;;;;;409.97;391.57;;;2.40;99.90;;;;;;4416599;32;20186;-63
2022/01/05 02:29:10;;;;;;;410.23;391.13;;;2.40;99.90;;;;;;4413244;32;20588;-62
2022/01/05 02:31:37;;;;;;;402.90;385.00;;;2.40;99.90;;;;;;4415170;32;20207;-62
2022/01/05 02:34:04;;;;;;;406.53;387.13;;;2.40;99.90;;;;;;4408327;32;20165;-63
2022/01/05 02:43:46;;;;;;;382.07;364.80;;;2.30;99.90;;;;;;4418184;32;20236;-65
2022/01/05 02:46:16;;;;;;;378.00;361.10;;;2.20;99.90;;;;;;4410419;32;20177;-66
2022/01/05 02:48:47;;;;;;;396.33;378.90;;;2.10;99.90;;;;;;4412612;32;20152;-65
2022/01/05 02:51:14;;;;;;;399.27;381.13;;;2.10;99.90;;;;;;4418548;32;20217;-64
2022/01/05 02:53:41;;;;;;;411.80;393.50;;;2.10;99.90;;;;;;4421369;32;20165;-65
2022/01/05 02:56:08;;;;;;;391.60;373.93;;;2.10;99.90;;;;;;4418215;32;20165;-64
2022/01/05 02:58:35;;;;;;;424.20;404.43;;;2.20;99.90;;;;;;4419772;32;20169;-62
2022/01/05 03:01:06;;;;;;;429.83;409.87;;;2.20;99.90;;;;;;4413772;32;20148;-65
2022/01/05 03:03:33;;;;;;;409.77;390.60;;;2.10;99.90;;;;;;4416779;32;20175;-65
2022/01/05 03:06:01;;;;;;;399.07;381.07;;;2.10;99.90;;;;;;4422731;32;20184;-63
2022/01/05 03:08:31;;;;;;;416.53;397.60;;;2.10;99.90;;;;;;4410294;32;20164;-66
2022/01/05 03:11:08;;;;;;;402.10;383.93;;;2.10;99.90;;;;;;4422201;32;20173;-64
2022/01/05 03:13:35;;;;;;;403.90;384.33;;;2.10;99.90;;;;;;4417108;32;20499;-64
2022/01/05 03:16:14;;;;;;;408.33;390.20;;;2.10;99.90;;;;;;4423035;32;20143;-66
2022/01/05 03:18:42;;;;;;;394.90;377.20;;;2.20;99.90;;;;;;4417752;32;20165;-65
2022/01/05 03:21:09;;;;;;;410.73;392.17;;;2.20;99.90;;;;;;4408126;32;20599;-64
2022/01/05 03:23:37;;;;;;;399.07;380.50;;;2.20;99.90;;;;;;4407518;32;20179;-66
2022/01/05 03:26:04;;;;;;;408.43;389.53;;;2.30;99.90;;;;;;4407729;32;20563;-64
2022/01/05 03:28:31;;;;;;;408.83;389.80;;;2.30;99.90;;;;;;4410016;32;20455;-62
2022/01/05 03:30:58;;;;;;;425.23;405.83;;;2.30;99.90;;;;;;4408957;32;20635;-64
2022/01/05 03:33:26;;;;;;;409.47;390.93;;;2.30;99.90;;;;;;4407722;32;20162;-65
2022/01/05 03:35:55;;;;;;;433.43;414.03;;;2.30;99.90;;;;;;4407072;32;20148;-64
2022/01/05 03:38:23;;;;;;;409.87;391.17;;;2.20;99.90;;;;;;4416862;32;20164;-64
2022/01/05 03:40:54;;;;;;;434.73;414.43;;;2.30;99.90;;;;;;4418445;32;20523;-65
2022/01/05 03:43:24;;;;;;;424.23;404.53;;;2.40;99.90;;;;;;4414499;32;20471;-65
2022/01/05 03:45:51;;;;;;;421.53;402.23;;;2.40;99.90;;;;;;4418349;32;20449;-63
2022/01/05 03:48:21;;;;;;;445.63;424.30;;;2.40;99.90;;;;;;4409736;32;20175;-63
2022/01/05 03:50:49;;;;;;;404.83;386.50;;;2.40;99.90;;;;;;4418755;32;20573;-66
2022/01/05 03:53:17;;;;;;;431.77;412.07;;;2.30;99.90;;;;;;4406924;32;20170;-66
2022/01/05 03:55:45;;;;;;;418.30;398.60;;;2.30;99.90;;;;;;4407271;32;20219;-66
2022/01/05 03:58:13;;;;;;;417.07;396.83;;;2.40;99.90;;;;;;4419690;32;20163;-66
2022/01/05 04:00:46;;;;;;;423.57;403.83;;;2.30;99.90;;;;;;4410958;32;20473;-66
2022/01/05 04:03:13;;;;;;;429.77;410.07;;;2.40;99.90;;;;;;4415658;32;20185;-66
2022/01/05 04:05:44;;;;;;;430.23;410.43;;;2.50;99.90;;;;;;4417864;32;20190;-65
2022/01/05 04:08:15;;;;;;;413.33;394.97;;;2.50;99.90;;;;;;4409808;32;20190;-64
2022/01/05 04:10:42;;;;;;;431.77;410.77;;;2.60;99.90;;;;;;4418575;32;20199;-64
2022/01/05 04:13:09;;;;;;;417.93;398.53;;;2.70;99.90;;;;;;4415300;32;20158;-62
2022/01/05 04:15:37;;;;;;;414.90;395.43;;;2.70;99.90;;;;;;4415259;32;20155;-65
2022/01/05 04:18:04;;;;;;;423.40;403.97;;;2.80;99.90;;;;;;4414863;32;20566;-64
2022/01/05 04:20:31;;;;;;;428.27;408.47;;;2.90;99.90;;;;;;4409469;32;20145;-66
2022/01/05 04:22:58;;;;;;;424.03;404.27;;;2.90;99.90;;;;;;4416249;32;20152;-65
2022/01/05 04:25:27;;;;;;;420.73;401.17;;;3.00;99.90;;;;;;4406938;32;20500;-62
2022/01/05 04:27:54;;;;;;;410.80;391.63;;;3.20;99.90;;;;;;4418795;32;20152;-64
2022/01/05 04:30:21;;;;;;;417.20;397.93;;;3.30;99.90;;;;;;4409219;32;20154;-61
2022/01/05 04:32:48;;;;;;;433.27;413.67;;;3.40;99.90;;;;;;4418119;32;20602;-65
2022/01/05 04:35:15;;;;;;;436.90;417.00;;;3.50;99.90;;;;;;4413763;32;20174;-62
2022/01/05 04:37:44;;;;;;;426.27;406.83;;;3.50;99.90;;;;;;4415390;32;20168;-64
2022/01/05 04:40:12;;;;;;;427.47;407.83;;;3.60;99.90;;;;;;4418896;32;20440;-63
2022/01/05 04:42:46;;;;;;;428.70;409.00;;;3.60;99.90;;;;;;4409743;32;20154;-64
2022/01/05 04:45:15;;;;;;;418.90;399.27;;;3.70;99.90;;;;;;4409174;32;20197;-63
2022/01/05 04:47:45;;;;;;;428.03;408.50;;;3.70;99.90;;;;;;4416593;32;20162;-63
2022/01/05 04:50:21;;;;;;;433.47;413.77;;;3.80;99.90;;;;;;4409139;32;20152;-65
2022/01/05 04:52:48;;;;;;;419.07;399.90;;;3.80;99.90;;;;;;4417637;32;20506;-65
2022/01/05 04:55:15;;;;;;;434.97;414.67;;;3.80;99.90;;;;;;4406536;32;20172;-63
2022/01/05 04:57:44;;;;;;;423.23;403.87;;;3.80;99.90;;;;;;4410631;32;20507;-62
2022/01/05 05:00:11;;;;;;;447.20;426.87;;;3.90;99.90;;;;;;4406965;32;20148;-63
2022/01/05 05:02:48;;;;;;;455.60;434.37;;;3.90;99.90;;;;;;4417895;32;20158;-64
2022/01/05 05:05:15;;;;;;;448.03;427.03;;;4.00;99.90;;;;;;4409426;32;20147;-64
2022/01/05 05:07:46;;;;;;;441.90;420.67;;;4.00;99.90;;;;;;4413223;32;20213;-64
2022/01/05 05:10:13;;;;;;;443.53;422.07;;;4.10;99.90;;;;;;4418767;32;20652;-62
2022/01/05 05:12:41;;;;;;;451.50;429.77;;;4.10;99.90;;;;;;4409644;32;20215;-60
2022/01/05 05:15:12;;;;;;;440.93;420.03;;;4.20;99.90;;;;;;4414422;32;20503;-65
2022/01/05 05:17:40;;;;;;;455.83;434.17;;;4.20;99.90;;;;;;4405419;32;20167;-61
2022/01/05 05:20:07;;;;;;;435.53;414.73;;;4.20;99.90;;;;;;4418747;32;20147;-64
2022/01/05 05:22:35;;;;;;;478.30;455.40;;;4.10;99.90;;;;;;4418092;32;20157;-65
2022/01/05 05:25:02;;;;;;;455.20;433.90;;;4.10;99.90;;;;;;4414793;32;20155;-63
2022/01/05 05:27:30;;;;;;;452.97;431.80;;;4.10;99.90;;;;;;4417387;32;20481;-65
2022/01/05 05:29:57;;;;;;;462.57;441.13;;;4.20;99.90;;;;;;4410414;32;20490;-65
2022/01/05 05:32:25;;;;;;;453.07;431.83;;;4.10;99.90;;;;;;4418056;32;20158;-65
2022/01/05 05:35:15;;;;;;;466.10;443.60;;;4.20;99.90;;;;;;4411525;32;20517;-65
2022/01/05 05:37:44;;;;;;;429.37;409.30;;;4.20;99.90;;;;;;4416405;32;20163;-65
2022/01/05 05:40:13;;;;;;;420.83;401.17;;;4.20;99.90;;;;;;4420047;32;20156;-64
2022/01/05 05:42:56;;;;;;;456.47;435.03;;;4.30;99.90;;;;;;4405898;32;20203;-64
2022/01/05 05:45:24;;;;;;;431.03;411.30;;;4.30;99.90;;;;;;4413692;32;20145;-62
2022/01/05 05:47:55;;;;;;;469.33;446.13;;;4.30;99.90;;;;;;4409424;32;20172;-62
2022/01/05 05:50:22;;;;;;;462.17;440.83;;;4.40;99.90;;;;;;4407666;32;20207;-65
2022/01/05 05:52:49;;;;;;;460.87;439.47;;;4.40;99.90;;;;;;4415792;32;20479;-64
2022/01/05 05:55:16;;;;;;;452.67;431.63;;;4.40;99.90;;;;;;4412893;32;20168;-66
2022/01/05 05:57:45;;;;;;;464.70;442.83;;;4.50;99.90;;;;;;4411066;32;20152;-63
2022/01/05 06:00:14;;;;;;;466.37;444.47;;;4.50;99.90;;;;;;4411313;32;20201;-62
2022/01/05 06:02:47;;;;;;;464.03;441.83;;;4.50;99.90;;;;;;4415986;32;20146;-66
2022/01/05 06:05:16;;;;;;;467.23;445.53;;;4.50;99.90;;;;;;4412665;32;20143;-65
2022/01/05 06:07:46;;;;;;;487.17;464.03;;;4.50;99.90;;;;;;4415790;32;20595;-63
2022/01/05 06:10:13;;;;;;;492.60;468.57;;;4.40;99.90;;;;;;4407959;32;20152;-64
2022/01/05 06:12:43;;;;;;;466.20;443.87;;;4.40;99.90;;;;;;4416971;32;20190;-63
2022/01/05 06:15:14;;;;;;;495.87;472.73;;;4.40;99.90;;;;;;4408713;32;20184;-64
2022/01/05 06:17:44;;;;;;;487.87;464.33;;;4.40;99.90;;;;;;4413107;32;20159;-63
2022/01/05 06:20:19;;;;;;;484.27;461.27;;;4.40;99.90;;;;;;4407582;32;20513;-63
2022/01/05 06:22:47;;;;;;;489.13;466.33;;;4.40;99.90;;;;;;4409455;32;20226;-65
2022/01/05 06:25:14;;;;;;;478.77;455.77;;;4.30;99.90;;;;;;4412142;32;20235;-66
2022/01/05 06:27:48;;;;;;;478.93;455.50;;;4.30;99.90;;;;;;4415976;32;20171;-63
2022/01/05 06:30:21;;;;;;;490.50;466.63;;;4.30;99.90;;;;;;4417606;32;20158;-66
2022/01/05 06:32:48;;;;;;;475.57;452.73;;;4.20;99.90;;;;;;4417314;32;20253;-64
2022/01/05 06:35:23;;;;;;;482.57;459.83;;;4.20;99.90;;;;;;4415784;32;20189;-64
2022/01/05 06:38:05;;;;;;;478.90;456.30;;;4.20;99.90;;;;;;4418638;32;20167;-62
2022/01/05 06:40:39;;;;;;;474.47;451.47;;;4.10;99.90;;;;;;4416495;32;20241;-63
2022/01/05 06:43:06;;;;;;;477.33;455.27;;;4.20;99.90;;;;;;4408954;32;20195;-64
2022/01/05 06:45:53;;;;;;;481.83;458.87;;;4.20;99.90;;;;;;4407975;32;20167;-64
2022/01/05 06:48:20;;;;;;;464.00;441.63;;;4.20;99.90;;;;;;4409362;32;20165;-65
2022/01/05 06:50:52;;;;;;;473.93;450.57;;;4.20;99.90;;;;;;4414807;32;20166;-63
2022/01/05 06:53:24;;;;;;;475.93;452.90;;;4.20;99.90;;;;;;4407813;32;20169;-63
2022/01/05 06:55:55;;;;;;;500.93;476.40;;;4.20;99.90;;;;;;4419874;32;20148;-62
2022/01/05 06:58:46;;;;;;;487.63;464.13;;;4.20;99.90;;;;;;4411045;32;20169;-64
2022/01/05 07:01:31;;;;;;;481.23;457.63;;;4.20;99.90;;;;;;4419742;32;20246;-65
2022/01/05 07:03:59;;;;;;;454.83;433.43;;;4.20;99.90;;;;;;4419569;32;20202;-66
2022/01/05 07:06:26;;;;;;;490.43;466.43;;;4.30;99.90;;;;;;4416116;32;20148;-63
2022/01/05 07:15:40;;;;;;;439.83;418.50;;;4.30;99.90;;;;;;4420449;32;20207;-62
2022/01/05 07:18:10;;;;;;;501.33;476.13;;;4.30;99.90;;;;;;4414479;32;20193;-62
2022/01/05 07:20:36;;;;;;;497.27;472.57;;;4.30;99.90;;;;;;4412222;32;20582;-62
2022/01/05 07:23:03;;;;;;;489.50;465.47;;;4.40;99.90;;;;;;4410257;32;20194;-63
2022/01/05 07:25:32;;;;;;;496.67;471.43;;;4.40;99.90;;;;;;4410910;32;20155;-62
2022/01/05 07:28:02;;;;;;;497.63;473.77;;;4.40;99.90;;;;;;4419236;32;20241;-62
2022/01/05 07:30:34;;;;;;;481.93;457.43;;;4.50;99.90;;;;;;4412666;32;20157;-62
2022/01/05 07:33:02;;;;;;;501.33;476.23;;;4.50;99.90;;;;;;4412141;32;20199;-62
2022/01/05 07:35:33;;;;;;;505.57;479.83;;;4.50;99.90;;;;;;4413596;32;20150;-62
2022/01/05 07:38:00;;;;;;;508.27;482.73;;;4.50;99.90;;;;;;4416224;32;20198;-62
2022/01/05 07:40:31;;;;;;;506.53;481.23;;;4.50;99.90;;;;;;4407717;32;20231;-62
2022/01/05 07:42:58;;;;;;;485.23;461.17;;;4.60;99.90;;;;;;4410110;32;20194;-65
2022/01/05 07:45:24;;;;;;;510.23;484.27;;;4.60;99.90;;;;;;4410569;32;20178;-61
2022/01/05 07:47:56;;;;;;;509.67;483.57;;;4.60;99.90;;;;;;4411868;32;20235;-60
2022/01/05 07:50:25;;;;;;;507.87;482.63;;;4.60;99.90;;;;;;4414794;32;20178;-64
2022/01/05 07:52:51;;;;;;;510.03;483.87;;;4.60;99.90;;;;;;4412456;32;20205;-63
2022/01/05 07:55:24;;;;;;;511.63;486.40;;;4.60;99.90;;;;;;4414698;32;20547;-63
2022/01/05 07:57:51;;;;;;;490.00;466.07;;;4.60;99.90;;;;;;4413689;32;20330;-63
2022/01/05 08:00:21;;;;;;;500.17;475.40;;;4.60;99.90;;;;;;4410240;32;20218;-63
2022/01/05 08:02:48;;;;;;;504.73;479.03;;;4.50;99.90;;;;;;4412928;32;20218;-64
2022/01/05 08:05:15;;;;;;;505.67;479.87;;;4.60;99.90;;;;;;4413632;32;20577;-67
2022/01/05 08:07:45;;;;;;;504.20;479.03;;;4.60;99.90;;;;;;4417756;32;20167;-63
2022/01/05 08:10:14;;;;;;;510.73;486.47;;;4.50;99.90;;;;;;4412847;32;20249;-63
2022/01/05 08:12:41;;;;;;;508.83;483.90;;;4.60;99.90;;;;;;4409472;32;20166;-66
2022/01/05 08:15:09;;;;;;;525.20;498.23;;;4.70;99.90;;;;;;4413689;32;20615;-65
2022/01/05 08:17:38;;;;;;;497.90;473.20;;;4.60;99.90;;;;;;4411916;32;20156;-63
2022/01/05 08:20:06;;;;;;;474.83;452.07;;;4.60;99.90;;;;;;4411440;32;20201;-65
2022/01/05 08:22:33;;;;;;;488.60;464.07;;;4.60;99.90;;;;;;4411692;32;20199;-66
2022/01/05 08:25:02;;;;;;;499.93;474.50;;;4.60;99.90;;;;;;4412921;32;20163;-63
2022/01/05 08:27:28;;;;;;;487.27;463.90;;;4.60;99.90;;;;;;4412214;32;20251;-63
2022/01/05 08:29:59;;;;;;;507.30;482.57;;;4.60;99.90;;;;;;4412249;32;20190;-65
2022/01/05 08:32:26;;;;;;;486.33;462.50;;;4.70;99.90;;;;;;4412903;32;20170;-65
2022/01/05 08:34:53;;;;;;;492.57;469.33;;;4.60;99.90;;;;;;4410959;32;20214;-63
2022/01/05 08:37:22;;;;;;;493.63;469.17;;;4.60;99.90;;;;;;4411905;32;20180;-64
2022/01/05 08:39:51;;;;;;;475.07;452.13;;;4.60;99.90;;;;;;4404514;32;20155;-66
2022/01/05 08:42:19;;;;;;;481.30;457.43;;;4.60;99.90;;;;;;4406364;32;20163;-62
2022/01/05 08:44:46;;;;;;;471.80;449.43;;;4.60;99.90;;;;;;4412220;32;20192;-62
2022/01/05 08:47:13;;;;;;;477.03;454.47;;;4.60;99.90;;;;;;4412599;32;20188;-64
2022/01/05 08:49:39;;;;;;;473.40;450.67;;;4.60;99.90;;;;;;4411832;32;20245;-68
2022/01/05 08:52:09;;;;;;;474.90;452.20;;;4.60;99.90;;;;;;4411174;32;20616;-63
2022/01/05 08:54:39;;;;;;;487.27;462.67;;;4.70;99.90;;;;;;4413108;32;20150;-63
2022/01/05 08:57:09;;;;;;;489.43;465.17;;;4.70;99.90;;;;;;4412122;32;21706;-63
2022/01/05 08:59:37;;;;;;;482.03;458.13;;;4.70;99.90;;;;;;4411340;32;20590;-64
2022/01/05 09:02:04;;;;;;;503.07;477.00;;;4.80;99.90;;;;;;4412397;32;20197;-63
2022/01/05 09:04:34;;;;;;;478.63;455.10;;;4.70;99.90;;;;;;4412566;32;20247;-64
2022/01/05 09:07:12;;;;;;;487.60;463.80;;;4.70;99.90;;;;;;4406544;32;20170;-67
2022/01/05 09:09:46;;;;;;;488.60;464.50;;;4.70;99.90;;;;;;4409917;32;20537;-64
2022/01/05 09:12:13;;;;;;;495.30;470.80;;;4.80;99.90;;;;;;4411409;32;20194;-68
2022/01/05 09:14:44;;;;;;;470.23;446.50;;;4.80;99.90;;;;;;4413413;32;20217;-67
2022/01/05 09:17:11;;;;;;;476.07;452.17;;;4.80;99.90;;;;;;4409048;32;20275;-63
2022/01/05 09:19:37;;;;;;;489.90;465.37;;;4.80;99.90;;;;;;4407689;32;20159;-62
2022/01/05 09:22:05;;;;;;;468.67;445.97;;;4.90;99.90;;;;;;4413970;32;20163;-63
2022/01/05 09:24:33;;;;;;;473.73;449.73;;;4.90;99.90;;;;;;4408858;32;20650;-65
2022/01/05 09:27:03;;;;;;;488.33;464.20;;;4.80;99.90;;;;;;4409682;32;20181;-64
2022/01/05 09:29:30;;;;;;;479.03;455.97;;;4.90;99.90;;;;;;4411864;32;20155;-67
2022/01/05 09:32:03;;;;;;;512.37;487.27;;;4.90;99.90;;;;;;4411144;32;20179;-63
2022/01/05 09:34:31;;;;;;;498.53;473.00;;;4.90;99.90;;;;;;4409922;32;20225;-64
2022/01/05 09:37:01;;;;;;;486.00;461.97;;;5.00;99.90;;;;;;4411791;32;20555;-63
2022/01/05 09:42:19;;;;;;;491.30;466.90;;;5.00;99.90;;;;;;4412332;32;20200;-65
2022/01/05 09:44:48;;;;;;;497.07;471.50;;;5.10;99.90;;;;;;4411261;32;20218;-63
2022/01/05 09:47:44;;;;;;;488.17;463.83;;;5.20;99.90;;;;;;4411347;32;20171;-65
2022/01/05 09:50:13;;;;;;;477.23;453.43;;;5.20;99.90;;;;;;4410016;32;20213;-64
2022/01/05 09:52:46;;;;;;;490.87;465.77;;;5.30;99.90;;;;;;4409748;32;20209;-67
2022/01/05 09:55:14;;;;;;;497.30;472.17;;;5.30;99.90;;;;;;4408461;32;20522;-65
2022/01/05 09:57:43;;;;;;;490.03;465.73;;;5.30;99.90;;;;;;4413827;32;20224;-65
2022/01/05 10:00:12;;;;;;;496.13;471.23;;;5.30;99.90;;;;;;4411848;32;20553;-63
2022/01/05 10:02:40;;;;;;;482.07;457.97;;;5.30;99.90;;;;;;4412097;32;20553;-64
2022/01/05 10:05:20;;;;;;;472.77;448.73;;;5.30;99.90;;;;;;4409579;32;20156;-63
2022/01/05 10:07:48;;;;;;;492.80;468.53;;;5.40;99.90;;;;;;4412873;32;20153;-60
2022/01/05 10:10:32;;;;;;;496.70;472.53;;;5.50;99.90;;;;;;4405954;32;20533;-62
2022/01/05 10:12:59;;;;;;;511.23;485.13;;;5.50;99.90;;;;;;4408218;32;20173;-63
2022/01/05 10:15:26;;;;;;;498.57;473.00;;;5.50;99.90;;;;;;4410603;32;20155;-66
2022/01/05 10:18:28;;;;;;;527.83;501.77;;;5.60;99.90;;;;;;4404895;32;20258;-63
2022/01/05 10:21:01;;;;;;;506.27;481.90;;;5.60;99.90;;;;;;4411261;32;20171;-62
2022/01/05 10:23:38;;;;;;;505.80;480.07;;;5.70;99.90;;;;;;4408277;32;20167;-63
2022/01/05 10:26:25;;;;;;;491.10;465.73;;;5.70;99.90;;;;;;4412136;32;20214;-67
2022/01/05 10:28:54;;;;;;;485.87;461.53;;;5.70;99.90;;;;;;4406635;32;20171;-63
2022/01/05 10:31:23;;;;;;;506.10;479.30;;;5.80;99.90;;;;;;4406359;32;20179;-63
2022/01/05 10:33:54;;;;;;;497.57;472.57;;;5.70;99.90;;;;;;4415510;32;20213;-64
2022/01/05 10:36:21;;;;;;;502.87;477.60;;;5.80;99.90;;;;;;4409309;32;20643;-63
2022/01/05 10:38:54;;;;;;;492.23;467.27;;;5.80;99.90;;;;;;4413098;32;20168;-65
2022/01/05 10:41:22;;;;;;;512.60;487.33;;;5.80;99.90;;;;;;4411739;32;20171;-63
2022/01/05 10:44:11;;;;;;;480.77;456.60;;;5.80;99.90;;;;;;4407861;32;20659;-65
2022/01/05 10:46:40;;;;;;;480.70;456.40;;;5.90;99.90;;;;;;4405688;32;20160;-66
2022/01/05 10:49:26;;;;;;;485.40;461.00;;;5.80;99.90;;;;;;4407529;32;20629;-62
2022/01/05 10:51:54;;;;;;;476.07;452.20;;;5.80;99.90;;;;;;4409010;32;20250;-62
2022/01/05 10:54:24;;;;;;;474.97;451.33;;;5.90;99.90;;;;;;4408044;32;20182;-64
2022/01/05 10:56:54;;;;;;;498.97;473.53;;;5.80;99.90;;;;;;4406494;32;20594;-63
2022/01/05 10:59:35;;;;;;;498.93;473.50;;;5.90;99.90;;;;;;4409267;32;20232;-63
2022/01/05 11:02:27;;;;;;;484.33;459.10;;;5.90;99.90;;;;;;4405845;32;20160;-63
2022/01/05 11:04:58;;;;;;;492.07;467.53;;;6.00;99.90;;;;;;4405939;32;20171;-63
2022/01/05 11:07:29;;;;;;;453.43;430.83;;;6.10;99.90;;;;;;4412958;32;20240;-63
2022/01/05 11:10:00;;;;;;;466.13;442.50;;;6.10;99.90;;;;;;4408800;32;20178;-64
2022/01/05 11:12:35;;;;;;;445.53;423.70;;;6.20;99.90;;;;;;4407384;32;20205;-63
2022/01/05 11:15:22;;;;;;;473.97;450.67;;;6.10;99.90;;;;;;4406932;32;20160;-65
2022/01/05 11:18:10;;;;;;;478.53;455.50;;;6.10;99.90;;;;;;4413985;32;20174;-64
2022/01/05 11:20:42;;;;;;;467.47;443.17;;;6.10;99.90;;;;;;4408964;32;20215;-65
2022/01/05 11:23:12;;;;;;;468.63;445.17;;;6.10;99.90;;;;;;4412687;32;20152;-62
2022/01/05 11:25:42;;;;;;;504.93;479.40;;;6.00;99.90;;;;;;4411444;32;20156;-66
2022/01/05 11:28:12;;;;;;;493.40;469.10;;;6.10;99.90;;;;;;4411181;32;20211;-66
2022/01/05 11:30:39;;;;;;;477.90;453.30;;;6.20;99.90;;;;;;4409619;32;20221;-64
2022/01/05 11:33:07;;;;;;;484.23;460.07;;;6.30;99.90;;;;;;4412049;32;20190;-63
2022/01/05 11:35:34;;;;;;;471.57;448.53;;;6.40;99.90;;;;;;4403263;32;21523;-64
2022/01/05 11:38:05;;;;;;;490.03;465.97;;;6.30;99.90;;;;;;4404572;32;20694;-63
2022/01/05 11:40:33;;;;;;;478.27;455.20;;;6.30;99.90;;;;;;4405911;32;20148;-63
2022/01/05 11:43:12;;;;;;;485.57;461.37;;;6.30;99.90;;;;;;4411699;32;20159;-63
2022/01/05 11:45:45;;;;;;;479.77;456.07;;;6.30;99.90;;;;;;4412338;32;20229;-64
2022/01/05 11:48:18;;;;;;;478.07;454.93;;;6.30;99.90;;;;;;4404332;32;20155;-64
2022/01/05 11:50:50;;;;;;;466.77;443.63;;;6.40;99.90;;;;;;4405757;32;20186;-66
2022/01/05 11:53:38;;;;;;;457.17;435.03;;;6.40;99.90;;;;;;4407446;32;20226;-64
2022/01/05 11:56:17;;;;;;;442.57;421.30;;;6.40;99.90;;;;;;4410267;32;20198;-64
2022/01/05 11:59:05;;;;;;;475.87;452.93;;;6.50;99.90;;;;;;4410158;32;20194;-65
2022/01/05 12:01:43;;;;;;;464.70;443.10;;;6.50;99.90;;;;;;4352782;32;20553;-65
2022/01/05 12:04:14;;;;;;;478.90;456.00;;;6.50;99.90;;;;;;4355770;32;20168;-64
2022/01/05 12:07:02;;;;;;;454.03;432.23;;;6.50;99.90;;;;;;4360084;32;20240;-64
2022/01/05 12:09:32;;;;;;;470.00;447.20;;;6.60;99.90;;;;;;4357227;32;20214;-64
2022/01/05 12:12:03;;;;;;;487.10;463.40;;;6.50;99.90;;;;;;4356187;32;20168;-63
2022/01/05 12:14:54;;;;;;;465.43;442.23;;;6.50;99.90;;;;;;4360310;32;20539;-63
2022/01/05 12:17:21;;;;;;;442.70;420.50;;;6.40;99.90;;;;;;4301315;33;20268;-61
2022/01/05 12:20:11;;;;;;;471.97;448.93;;;6.40;99.90;;;;;;4301668;33;20165;-63
2022/01/05 12:22:38;;;;;;;463.30;440.40;;;6.60;99.90;;;;;;4303200;33;20200;-65
2022/01/05 12:25:21;;;;;;;475.23;452.23;;;6.60;99.90;;;;;;4301578;33;20162;-63
2022/01/05 12:28:03;;;;;;;475.37;452.47;;;6.60;99.90;;;;;;4301202;33;20245;-62
2022/01/05 12:30:48;;;;;;;467.77;444.80;;;6.50;99.90;;;;;;4301945;33;20279;-62
2022/01/05 12:33:19;;;;;;;478.50;455.00;;;6.60;99.90;;;;;;4301653;33;20188;-64
2022/01/05 12:35:53;;;;;;;482.80;458.50;;;6.70;99.90;;;;;;4305086;33;20185;-63
2022/01/05 12:38:48;;;;;;;473.53;450.17;;;6.70;99.90;;;;;;4324994;32;20200;-64
2022/01/05 12:41:40;;;;;;;478.93;454.93;;;6.80;99.90;;;;;;4359229;32;20218;-64
2022/01/05 12:44:43;;;;;;;483.43;459.53;;;6.80;99.90;;;;;;4356578;32;20173;-63
2022/01/05 12:47:12;;;;;;;469.50;446.13;;;6.60;99.90;;;;;;4347424;32;20222;-65
2022/01/05 12:49:40;;;;;;;496.33;472.07;;;6.70;99.90;;;;;;4357427;32;20635;-65
2022/01/05 12:52:18;;;;;;;498.37;474.30;;;6.50;99.90;;;;;;4359522;32;20160;-64